Time;durP1;ratioP1;P1;durP2;ratioP2;P2;SDS_P1;SDS_P2;PMS_P1;PMS_P2;Temp;Humidity;BMP_temperature;BMP_pressure;BME280_temperature;BME280_humidity;BME280_pressure;Samples;Min_cycle;Max_cycle;Signal;HPM_P1;HPM_P2
2023/02/23 00:00:56;;;;;;;;;;;;;;;10.33;70.26;99555.03;1088588;39;20601;-82
2023/02/23 00:02:04;;;;;;;;;;;;;;;10.26;70.61;99551.31;1087635;54;19949;-82
2023/02/23 00:03:05;;;;;;;;;;;;;;;10.26;70.61;99548.66;1087559;54;19966;-83
2023/02/23 00:04:09;;;;;;;;;;;;;;;10.35;70.08;99550.41;1087601;54;19949;-83
2023/02/23 00:05:10;;;;;;;;;;;;;;;10.44;69.98;99551.31;1087727;54;19950;-84
2023/02/23 00:06:15;;;;;;;;;;;;;;;10.48;69.52;99549.19;1087594;54;19960;-84
2023/02/23 00:07:19;;;;;;;;;;;;;;;10.51;69.48;99546.19;1087601;54;20732;-85
2023/02/23 00:08:22;;;;;;;;;;;;;;;10.55;69.74;99545.72;1087615;54;19973;-83
2023/02/23 00:09:23;;;;;;;;;;;;;;;10.54;69.88;99548.56;1087624;54;19943;-82
2023/02/23 00:10:29;;;;;;;;;;;;;;;10.58;69.71;99549.94;1087636;54;19949;-85
2023/02/23 00:11:32;;;;;;;;;;;;;;;10.57;69.78;99545.56;1087515;54;19950;-82
2023/02/23 00:12:36;;;;;;;;;;;;;;;10.59;69.74;99546.22;1087649;54;19942;-82
2023/02/23 00:13:37;;;;;;;;;;;;;;;10.60;69.69;99547.91;1087106;54;19966;-83
2023/02/23 00:14:42;;;;;;;;;;;;;;;10.65;69.48;99544.78;1087044;54;21094;-83
2023/02/23 00:15:43;;;;;;;;;;;;;;;10.67;69.29;99548.13;1088280;39;20207;-82
2023/02/23 00:16:47;;;;;;;;;;;;;;;10.69;69.43;99540.78;1087547;54;19939;-83
2023/02/23 00:17:50;;;;;;;;;;;;;;;10.71;69.25;99549.50;1087560;54;19965;-86
2023/02/23 00:18:55;;;;;;;;;;;;;;;10.70;69.19;99543.31;1087547;54;19939;-82
2023/02/23 00:19:56;;;;;;;;;;;;;;;10.67;69.59;99548.13;1087505;54;19949;-82
2023/02/23 00:21:02;;;;;;;;;;;;;;;10.64;69.73;99543.94;1087760;54;19942;-86
2023/02/23 00:22:03;;;;;;;;;;;;;;;10.67;69.97;99545.47;1087697;54;19943;-84
2023/02/23 00:23:09;;;;;;;;;;;;;;;10.66;70.03;99543.78;1087728;54;19946;-86
2023/02/23 00:24:12;;;;;;;;;;;;;;;10.68;70.11;99541.78;1087674;54;19954;-86
2023/02/23 00:25:17;;;;;;;;;;;;;;;10.61;70.28;99537.09;1087684;54;19943;-84
2023/02/23 00:26:19;;;;;;;;;;;;;;;10.58;70.48;99541.91;1087741;54;19979;-85
2023/02/23 00:27:23;;;;;;;;;;;;;;;10.57;70.43;99537.56;1087661;54;19949;-86
2023/02/23 00:28:24;;;;;;;;;;;;;;;10.64;70.27;99543.09;1087751;54;19942;-83
2023/02/23 00:29:29;;;;;;;;;;;;;;;10.65;70.39;99540.28;1087700;54;19949;-84
2023/02/23 00:30:33;;;;;;;;;;;;;;;10.63;70.48;99534.25;1087766;54;19957;-83
2023/02/23 00:31:37;;;;;;;;;;;;;;;10.61;70.62;99544.25;1090264;39;20174;-86
2023/02/23 00:32:38;;;;;;;;;;;;;;;10.58;70.66;99537.38;1087727;54;19967;-84
2023/02/23 00:33:42;;;;;;;;;;;;;;;10.59;70.90;99533.72;1087703;54;19942;-89
2023/02/23 00:34:43;;;;;;;;;;;;;;;10.53;71.02;99542.34;1091149;39;20550;-84
2023/02/23 00:35:47;;;;;;;;;;;;;;;10.51;71.57;99539.03;1087877;54;19950;-85
2023/02/23 00:36:49;;;;;;;;;;;;;;;10.49;71.66;99538.34;1087656;54;19986;-82
2023/02/23 00:37:52;;;;;;;;;;;;;;;10.51;71.78;99540.84;1087755;54;20749;-84
2023/02/23 00:38:59;;;;;;;;;;;;;;;10.51;71.74;99532.81;1087772;54;19958;-84
2023/02/23 00:40:03;;;;;;;;;;;;;;;10.52;71.97;99526.47;1087939;46;19989;-83
2023/02/23 00:41:05;;;;;;;;;;;;;;;10.45;72.63;99528.94;1087733;54;19939;-86
2023/02/23 00:42:09;;;;;;;;;;;;;;;10.45;72.48;99535.13;1087656;54;19965;-85
2023/02/23 00:43:10;;;;;;;;;;;;;;;10.37;73.91;99536.88;1087664;54;19942;-84
2023/02/23 00:44:14;;;;;;;;;;;;;;;10.31;74.39;99535.66;1087713;54;19973;-86
2023/02/23 00:45:16;;;;;;;;;;;;;;;10.36;74.06;99541.38;1087659;54;19949;-85
2023/02/23 00:46:21;;;;;;;;;;;;;;;10.44;73.57;99533.47;1087667;54;19942;-84
2023/02/23 00:47:22;;;;;;;;;;;;;;;10.43;74.21;99530.94;1087574;54;19943;-85
2023/02/23 00:48:27;;;;;;;;;;;;;;;10.41;74.43;99539.09;1087355;54;19955;-83
2023/02/23 00:49:31;;;;;;;;;;;;;;;10.36;75.49;99536.03;1087399;54;20006;-84
2023/02/23 00:50:33;;;;;;;;;;;;;;;10.35;75.61;99530.84;1088166;39;21343;-83
2023/02/23 00:51:38;;;;;;;;;;;;;;;10.32;75.79;99532.00;1087343;54;19958;-83
2023/02/23 00:52:39;;;;;;;;;;;;;;;10.30;76.41;99528.63;1087385;54;20642;-84
2023/02/23 00:53:43;;;;;;;;;;;;;;;10.35;76.04;99537.03;1087378;54;19957;-86
2023/02/23 00:54:47;;;;;;;;;;;;;;;10.30;76.86;99528.63;1087254;54;20021;-82
2023/02/23 00:55:50;;;;;;;;;;;;;;;10.27;77.35;99529.78;1087304;54;19947;-84
2023/02/23 00:56:51;;;;;;;;;;;;;;;10.33;76.89;99533.66;1087276;54;20054;-84
2023/02/23 00:57:57;;;;;;;;;;;;;;;10.37;76.78;99526.19;1087327;54;19966;-85
2023/02/23 00:58:58;;;;;;;;;;;;;;;10.40;76.74;99520.56;1087352;54;19956;-84
2023/02/23 01:00:06;;;;;;;;;;;;;;;10.40;77.47;99528.59;1087268;54;19942;-82
2023/02/23 01:01:08;;;;;;;;;;;;;;;10.36;77.40;99522.69;1087361;54;19966;-84
2023/02/23 01:02:11;;;;;;;;;;;;;;;10.38;77.25;99518.06;1087291;54;19949;-82
2023/02/23 01:03:12;;;;;;;;;;;;;;;10.40;77.55;99520.56;1089778;39;20457;-83
2023/02/23 01:04:16;;;;;;;;;;;;;;;10.39;77.85;99525.06;1087314;54;19950;-83
2023/02/23 01:05:19;;;;;;;;;;;;;;;10.42;77.84;99522.09;1087298;54;19950;-83
2023/02/23 01:06:23;;;;;;;;;;;;;;;10.40;78.28;99532.09;1087370;54;19943;-81
2023/02/23 01:07:24;;;;;;;;;;;;;;;10.38;77.79;99528.75;1087249;54;19946;-83
2023/02/23 01:08:28;;;;;;;;;;;;;;;10.43;77.90;99525.59;1087320;54;19950;-82
2023/02/23 01:09:29;;;;;;;;;;;;;;;10.45;78.10;99520.91;1087292;54;19942;-82
2023/02/23 01:10:37;;;;;;;;;;;;;;;10.42;78.46;99527.44;1087358;54;20295;-82
2023/02/23 01:11:40;;;;;;;;;;;;;;;10.39;79.41;99525.06;1087216;54;19943;-82
2023/02/23 01:12:43;;;;;;;;;;;;;;;10.36;79.50;99529.84;1087253;54;19943;-84
2023/02/23 01:13:45;;;;;;;;;;;;;;;10.41;79.24;99528.41;1087245;54;19942;-84
2023/02/23 01:14:49;;;;;;;;;;;;;;;10.39;79.27;99525.06;1087185;54;19942;-82
2023/02/23 01:15:51;;;;;;;;;;;;;;;10.51;78.57;99527.47;1087079;54;19943;-81
2023/02/23 01:16:54;;;;;;;;;;;;;;;10.50;79.06;99531.13;1087017;54;20697;-81
2023/02/23 01:17:55;;;;;;;;;;;;;;;10.44;79.58;99528.13;1086883;54;20649;-82
2023/02/23 01:19:02;;;;;;;;;;;;;;;10.49;79.25;99527.63;1086863;54;19949;-82
2023/02/23 01:20:12;;;;;;;;;;;;;;;10.58;78.58;99524.03;1087227;54;20641;-80
